Douglass, South Carolina
Current Conditions -  °F | °C
As of 7:55 AM on Saturday 20 Dec 2014 (Local Time) from KDCM Reporting Station
Light Rain Light Rain  
Wind Chill: 39°   Ceiling: 2500
Heat Index: 43°   Visibility: 7mi
Dew Point: 39°   Wind: 7mph
Humidity: 87%   Direction: 360°N
Pressure: 30.23"   Gusts: NA
Location:  34.5772°N, 81.1021°W
Report Text: KDCM 201255Z AUTO 36006KT 7SM -RA OVC025 06/04 A3023 RMK AO2
Loading
Personal Weather Stations






























Interactive Weather Map New forecast layout! Learn more

10-Day Weather Forecast

Advertisements
Track Severe Weather on mobile